Time;durP1;ratioP1;P1;durP2;ratioP2;P2;SDS_P1;SDS_P2;PMS_P1;PMS_P2;Temp;Humidity;BMP_temperature;BMP_pressure;BME280_temperature;BME280_humidity;BME280_pressure;Samples;Min_cycle;Max_cycle;Signal;HPM_P1;HPM_P2
2023/03/18 00:01:45;;;;;;;9.65;4.63;;;;;;;;;;5043478;27;87607;-75
2023/03/18 00:04:12;;;;;;;11.45;6.13;;;;;;;;;;5042117;27;87593;-74
2023/03/18 00:06:39;;;;;;;11.35;5.15;;;;;;;;;;5041912;27;88430;-76
2023/03/18 00:09:06;;;;;;;11.35;5.30;;;;;;;;;;5042485;27;89667;-76
2023/03/18 00:11:32;;;;;;;9.63;4.53;;;;;;;;;;5040343;27;87889;-75
2023/03/18 00:13:59;;;;;;;10.52;4.72;;;;;;;;;;5043162;27;88068;-75
2023/03/18 00:16:25;;;;;;;11.43;5.65;;;;;;;;;;5032320;28;88762;-74
2023/03/18 00:18:52;;;;;;;10.55;5.63;;;;;;;;;;5041962;27;87968;-75
2023/03/18 00:21:19;;;;;;;11.52;5.85;;;;;;;;;;5039903;28;89269;-75
2023/03/18 00:23:47;;;;;;;10.77;5.20;;;;;;;;;;5043037;27;88303;-75
2023/03/18 00:26:14;;;;;;;12.82;6.35;;;;;;;;;;5031056;27;88181;-75
2023/03/18 00:28:41;;;;;;;10.98;5.18;;;;;;;;;;5043592;27;88887;-75
2023/03/18 00:31:08;;;;;;;11.32;5.22;;;;;;;;;;5035288;28;87657;-76
2023/03/18 00:33:36;;;;;;;11.07;5.78;;;;;;;;;;5043606;28;88421;-76
2023/03/18 00:36:04;;;;;;;10.75;4.88;;;;;;;;;;5045282;27;88677;-75
2023/03/18 00:38:31;;;;;;;12.27;5.63;;;;;;;;;;5033223;28;87998;-75
2023/03/18 00:41:03;;;;;;;11.38;6.25;;;;;;;;;;5030234;27;88334;-75
2023/03/18 00:43:32;;;;;;;9.68;5.00;;;;;;;;;;5028219;28;88863;-75
2023/03/18 00:46:01;;;;;;;11.52;5.18;;;;;;;;;;5043409;28;89467;-74
2023/03/18 00:48:28;;;;;;;11.57;4.95;;;;;;;;;;5037807;27;88862;-75
2023/03/18 00:50:54;;;;;;;10.77;5.38;;;;;;;;;;5044998;27;87277;-75
2023/03/18 00:53:23;;;;;;;12.50;6.43;;;;;;;;;;5039752;28;89302;-75
2023/03/18 00:55:51;;;;;;;12.45;5.25;;;;;;;;;;5023573;28;91583;-74
2023/03/18 00:58:17;;;;;;;10.65;5.13;;;;;;;;;;5038960;28;89867;-74
2023/03/18 01:00:44;;;;;;;10.15;4.78;;;;;;;;;;5043089;27;90502;-75
2023/03/18 01:03:12;;;;;;;10.30;5.78;;;;;;;;;;5043748;28;90283;-74
2023/03/18 01:05:39;;;;;;;10.98;5.72;;;;;;;;;;5045237;27;88031;-74
2023/03/18 01:08:05;;;;;;;11.85;6.00;;;;;;;;;;5041449;27;88850;-74
2023/03/18 01:10:32;;;;;;;11.52;5.53;;;;;;;;;;5043135;28;89301;-74
2023/03/18 01:12:59;;;;;;;8.52;4.95;;;;;;;;;;5043315;28;95375;-74
2023/03/18 01:15:25;;;;;;;10.50;5.10;;;;;;;;;;5037796;28;89413;-75
2023/03/18 01:17:55;;;;;;;11.75;5.63;;;;;;;;;;5041220;27;87589;-75
2023/03/18 01:20:23;;;;;;;9.95;5.13;;;;;;;;;;5028333;28;88122;-75
2023/03/18 01:22:52;;;;;;;10.40;5.75;;;;;;;;;;5021103;27;89378;-75
2023/03/18 01:25:19;;;;;;;12.32;6.13;;;;;;;;;;5033682;28;90564;-73
2023/03/18 01:27:49;;;;;;;13.30;5.97;;;;;;;;;;5039440;27;87996;-74
2023/03/18 01:30:16;;;;;;;10.65;5.35;;;;;;;;;;5040283;28;88124;-75
2023/03/18 01:32:43;;;;;;;12.10;6.18;;;;;;;;;;5036654;27;88688;-74
2023/03/18 01:35:11;;;;;;;13.07;6.35;;;;;;;;;;5043907;27;88673;-74
2023/03/18 01:37:43;;;;;;;11.75;5.05;;;;;;;;;;5040194;28;87996;-74
2023/03/18 01:40:13;;;;;;;10.75;5.13;;;;;;;;;;5043327;27;89570;-75
2023/03/18 01:42:41;;;;;;;10.95;5.57;;;;;;;;;;5032526;28;90598;-75
2023/03/18 01:45:10;;;;;;;10.02;4.15;;;;;;;;;;5011694;28;88053;-75
2023/03/18 01:47:39;;;;;;;12.07;5.55;;;;;;;;;;5042945;28;89445;-75
2023/03/18 01:50:06;;;;;;;10.23;5.13;;;;;;;;;;5037572;27;87849;-74
2023/03/18 01:52:32;;;;;;;13.50;5.13;;;;;;;;;;5043078;28;90309;-75
2023/03/18 01:55:01;;;;;;;12.70;6.22;;;;;;;;;;5031787;27;92753;-75
2023/03/18 01:57:29;;;;;;;12.43;5.35;;;;;;;;;;5033836;28;89501;-75
2023/03/18 01:59:56;;;;;;;12.23;6.15;;;;;;;;;;5042734;28;90294;-74
2023/03/18 02:02:24;;;;;;;11.75;5.82;;;;;;;;;;5042086;28;89637;-75
2023/03/18 02:04:53;;;;;;;12.75;5.85;;;;;;;;;;5038613;27;89643;-75
2023/03/18 02:07:22;;;;;;;9.90;5.53;;;;;;;;;;5026392;28;90289;-75
2023/03/18 02:09:50;;;;;;;11.73;5.65;;;;;;;;;;5025966;28;89299;-75
2023/03/18 02:12:37;;;;;;;11.68;5.32;;;;;;;;;;5042580;28;88384;-75
2023/03/18 02:15:11;;;;;;;11.88;6.20;;;;;;;;;;5037490;28;94800;-75
2023/03/18 02:17:40;;;;;;;11.82;6.50;;;;;;;;;;5033697;28;89887;-75
2023/03/18 02:20:26;;;;;;;11.68;5.97;;;;;;;;;;5015392;27;90448;-75
2023/03/18 02:22:57;;;;;;;12.15;6.10;;;;;;;;;;5019144;28;90864;-76
2023/03/18 02:25:27;;;;;;;11.70;5.50;;;;;;;;;;5038293;28;89179;-75
2023/03/18 02:27:57;;;;;;;10.15;5.00;;;;;;;;;;5023791;28;88993;-75
2023/03/18 02:30:26;;;;;;;14.75;6.32;;;;;;;;;;5038771;28;89478;-76
2023/03/18 02:32:55;;;;;;;10.07;5.25;;;;;;;;;;5023288;28;88037;-76
2023/03/18 02:35:21;;;;;;;;;;;;;;;;;;5022475;28;90889;-75
2023/03/18 02:37:49;;;;;;;10.93;5.10;;;;;;;;;;5031451;28;88521;-76
2023/03/18 02:40:24;;;;;;;15.05;4.93;;;;;;;;;;5036182;28;89318;-77
2023/03/18 02:42:51;;;;;;;14.05;5.72;;;;;;;;;;5033448;27;90638;-75
2023/03/18 02:45:25;;;;;;;13.65;7.13;;;;;;;;;;5041221;28;89648;-75
2023/03/18 02:48:09;;;;;;;10.32;5.15;;;;;;;;;;5028207;28;88080;-76
2023/03/18 02:50:35;;;;;;;14.30;5.47;;;;;;;;;;5043412;27;91368;-75
2023/03/18 02:53:03;;;;;;;11.10;5.50;;;;;;;;;;5036367;27;88306;-74
2023/03/18 02:55:30;;;;;;;12.68;5.63;;;;;;;;;;5023298;28;90725;-74
2023/03/18 02:57:56;;;;;;;9.15;4.97;;;;;;;;;;5023285;28;87659;-73
2023/03/18 03:00:23;;;;;;;10.68;5.28;;;;;;;;;;5033721;28;90286;-74
2023/03/18 03:02:49;;;;;;;12.35;5.47;;;;;;;;;;5038466;27;91103;-74
2023/03/18 03:05:16;;;;;;;11.88;5.85;;;;;;;;;;5041520;28;87769;-74
2023/03/18 03:07:42;;;;;;;11.23;5.85;;;;;;;;;;5041767;28;89263;-74
2023/03/18 03:10:10;;;;;;;12.98;5.63;;;;;;;;;;5044351;28;89741;-75
2023/03/18 03:12:38;;;;;;;14.65;6.60;;;;;;;;;;5040392;27;88206;-74
2023/03/18 03:15:07;;;;;;;14.52;6.53;;;;;;;;;;5030629;28;90531;-75
2023/03/18 03:17:36;;;;;;;14.65;6.93;;;;;;;;;;5035618;28;88399;-75
2023/03/18 03:20:05;;;;;;;12.50;7.35;;;;;;;;;;5043202;27;89064;-75
2023/03/18 03:22:33;;;;;;;12.55;6.30;;;;;;;;;;5036252;28;88408;-75
2023/03/18 03:25:00;;;;;;;11.93;5.88;;;;;;;;;;5040224;28;95464;-74
2023/03/18 03:27:27;;;;;;;12.50;6.25;;;;;;;;;;5026250;27;88556;-74
2023/03/18 03:29:54;;;;;;;15.23;7.35;;;;;;;;;;5038735;28;90589;-73
2023/03/18 03:32:21;;;;;;;14.15;6.85;;;;;;;;;;5036964;28;89738;-73
2023/03/18 03:34:49;;;;;;;12.65;6.88;;;;;;;;;;5023289;27;90884;-73
2023/03/18 03:37:15;;;;;;;11.63;5.93;;;;;;;;;;5030524;28;89386;-75
2023/03/18 03:39:43;;;;;;;13.82;7.15;;;;;;;;;;5039895;28;88106;-75
2023/03/18 03:42:10;;;;;;;14.27;7.35;;;;;;;;;;5033250;28;88341;-73
2023/03/18 03:44:37;;;;;;;12.90;6.60;;;;;;;;;;5039584;27;87127;-75
2023/03/18 03:47:04;;;;;;;23.65;7.18;;;;;;;;;;5042976;27;87954;-74
2023/03/18 03:49:30;;;;;;;11.30;6.18;;;;;;;;;;5042913;27;88899;-76
2023/03/18 03:51:57;;;;;;;19.98;8.35;;;;;;;;;;5037934;28;88668;-76
2023/03/18 03:54:24;;;;;;;16.05;7.03;;;;;;;;;;5044381;28;89955;-76
2023/03/18 03:56:51;;;;;;;14.70;7.00;;;;;;;;;;5013035;27;89687;-76
2023/03/18 03:59:18;;;;;;;;;;;;;;;;;;5035561;28;90157;-75
2023/03/18 04:02:10;;;;;;;15.52;7.75;;;;;;;;;;5031329;27;88328;-74
2023/03/18 04:04:37;;;;;;;13.18;7.35;;;;;;;;;;5043986;27;87746;-74
2023/03/18 04:07:05;;;;;;;12.68;5.95;;;;;;;;;;5044787;28;88068;-74
2023/03/18 04:09:35;;;;;;;13.40;6.97;;;;;;;;;;5045301;28;90294;-74
2023/03/18 04:12:02;;;;;;;13.30;5.93;;;;;;;;;;5016494;28;88574;-74
2023/03/18 04:14:29;;;;;;;13.75;7.10;;;;;;;;;;5027769;28;90225;-74
2023/03/18 04:16:57;;;;;;;15.07;7.47;;;;;;;;;;5044401;27;88668;-74
2023/03/18 04:19:24;;;;;;;12.93;5.55;;;;;;;;;;5044755;28;88752;-74
2023/03/18 04:21:51;;;;;;;13.98;6.18;;;;;;;;;;5014995;28;90898;-74
2023/03/18 04:24:18;;;;;;;11.50;5.47;;;;;;;;;;5040449;28;89545;-74
2023/03/18 04:26:45;;;;;;;14.00;6.50;;;;;;;;;;5027261;27;89843;-74
2023/03/18 04:29:12;;;;;;;11.23;4.82;;;;;;;;;;5030489;27;88599;-74
2023/03/18 04:31:38;;;;;;;11.30;5.50;;;;;;;;;;5041381;28;89640;-74
2023/03/18 04:34:06;;;;;;;14.98;6.95;;;;;;;;;;5033573;28;90591;-74
2023/03/18 04:36:32;;;;;;;11.75;6.50;;;;;;;;;;5041699;27;89295;-74
2023/03/18 04:38:59;;;;;;;9.48;5.57;;;;;;;;;;5031934;28;91552;-74
2023/03/18 04:41:26;;;;;;;12.52;5.80;;;;;;;;;;5038801;28;91084;-74
2023/03/18 04:43:56;;;;;;;12.02;5.10;;;;;;;;;;5037894;28;87834;-75
2023/03/18 04:46:31;;;;;;;11.65;5.05;;;;;;;;;;5043917;28;90038;-74
2023/03/18 04:48:58;;;;;;;10.60;4.38;;;;;;;;;;5043180;28;88366;-74
2023/03/18 04:51:25;;;;;;;15.00;8.07;;;;;;;;;;5031905;28;88329;-74
2023/03/18 04:53:52;;;;;;;9.95;5.15;;;;;;;;;;5039823;28;88121;-74
2023/03/18 04:56:19;;;;;;;12.05;5.93;;;;;;;;;;5034636;28;90953;-74
2023/03/18 04:58:49;;;;;;;11.13;5.43;;;;;;;;;;5044199;27;89771;-74
2023/03/18 05:01:20;;;;;;;10.77;5.50;;;;;;;;;;5046533;28;87843;-74
2023/03/18 05:03:47;;;;;;;13.13;7.10;;;;;;;;;;5043849;28;90010;-74
2023/03/18 05:06:20;;;;;;;11.30;5.22;;;;;;;;;;5042815;28;89372;-74
2023/03/18 05:08:57;;;;;;;13.05;6.22;;;;;;;;;;5028188;27;90564;-75
2023/03/18 05:11:27;;;;;;;14.68;7.07;;;;;;;;;;5023620;28;89160;-74
2023/03/18 05:13:56;;;;;;;11.50;5.45;;;;;;;;;;5016535;28;88689;-75
2023/03/18 05:16:24;;;;;;;11.98;5.90;;;;;;;;;;5029700;28;90511;-75
2023/03/18 05:18:51;;;;;;;12.30;5.75;;;;;;;;;;5043075;27;87895;-73
2023/03/18 05:21:18;;;;;;;11.88;6.07;;;;;;;;;;5035735;28;89578;-73
2023/03/18 05:23:45;;;;;;;12.80;6.22;;;;;;;;;;5041774;28;87338;-75
2023/03/18 05:26:12;;;;;;;12.35;5.47;;;;;;;;;;5043179;28;87774;-74
2023/03/18 05:28:41;;;;;;;10.60;5.30;;;;;;;;;;5030663;28;89478;-75
2023/03/18 05:31:20;;;;;;;12.93;6.20;;;;;;;;;;5022658;28;89363;-75
2023/03/18 05:33:47;;;;;;;12.43;6.40;;;;;;;;;;5041389;28;90998;-75
2023/03/18 05:36:14;;;;;;;12.73;5.55;;;;;;;;;;5035199;28;90173;-75
2023/03/18 05:39:00;;;;;;;15.80;6.72;;;;;;;;;;5039049;27;92441;-75
2023/03/18 05:41:28;;;;;;;12.38;6.05;;;;;;;;;;5026059;28;88208;-75
2023/03/18 05:43:55;;;;;;;13.07;6.93;;;;;;;;;;5046324;28;89879;-75
2023/03/18 05:46:22;;;;;;;;;;;;;;;;;;5042173;28;90362;-75
2023/03/18 05:49:07;;;;;;;17.17;6.80;;;;;;;;;;5035298;28;94152;-74
2023/03/18 05:51:45;;;;;;;15.25;4.63;;;;;;;;;;5042820;28;87725;-75
2023/03/18 05:54:16;;;;;;;13.63;4.95;;;;;;;;;;5027094;28;87933;-74
2023/03/18 05:56:47;;;;;;;12.57;6.15;;;;;;;;;;5029208;28;91571;-74
2023/03/18 05:59:14;;;;;;;13.70;6.40;;;;;;;;;;5038203;27;88912;-75
2023/03/18 06:01:44;;;;;;;13.80;5.90;;;;;;;;;;5042707;28;90186;-75
2023/03/18 06:04:11;;;;;;;13.48;6.30;;;;;;;;;;5039740;28;90705;-74
2023/03/18 06:06:39;;;;;;;12.15;5.70;;;;;;;;;;5046078;27;87867;-74
2023/03/18 06:09:07;;;;;;;12.23;6.25;;;;;;;;;;5043035;28;91125;-73
2023/03/18 06:11:33;;;;;;;12.57;6.35;;;;;;;;;;5040276;27;89396;-74
2023/03/18 06:14:00;;;;;;;12.60;6.88;;;;;;;;;;5032704;28;88240;-74
2023/03/18 06:16:27;;;;;;;12.68;6.55;;;;;;;;;;5041201;28;90904;-73
2023/03/18 06:18:54;;;;;;;13.43;6.03;;;;;;;;;;5029134;27;89052;-74
2023/03/18 06:21:20;;;;;;;12.95;5.85;;;;;;;;;;5022687;28;88551;-75
2023/03/18 06:23:47;;;;;;;10.15;4.30;;;;;;;;;;5041652;28;90968;-75
2023/03/18 06:26:14;;;;;;;9.80;4.65;;;;;;;;;;5028460;27;88760;-75
2023/03/18 06:28:46;;;;;;;15.50;5.95;;;;;;;;;;5032657;27;90805;-75
2023/03/18 06:31:14;;;;;;;13.07;5.38;;;;;;;;;;5031141;28;87968;-75
2023/03/18 06:33:40;;;;;;;12.35;4.70;;;;;;;;;;5039390;28;90210;-74
2023/03/18 06:36:10;;;;;;;13.32;6.45;;;;;;;;;;5041207;28;90515;-74
2023/03/18 06:38:42;;;;;;;16.65;7.28;;;;;;;;;;5033152;27;87543;-74
2023/03/18 06:41:10;;;;;;;12.82;6.53;;;;;;;;;;5042123;28;89460;-75
2023/03/18 06:43:42;;;;;;;17.70;7.10;;;;;;;;;;5023609;28;90148;-75
2023/03/18 06:46:09;;;;;;;14.25;6.78;;;;;;;;;;5028462;28;89313;-75
2023/03/18 06:48:39;;;;;;;13.38;6.97;;;;;;;;;;5031635;27;88139;-74
2023/03/18 06:51:07;;;;;;;12.05;6.95;;;;;;;;;;5043671;28;90705;-74
2023/03/18 06:53:38;;;;;;;14.93;8.40;;;;;;;;;;5041645;28;88635;-74
2023/03/18 06:56:05;;;;;;;12.95;6.22;;;;;;;;;;5030367;28;88600;-74
2023/03/18 06:58:42;;;;;;;13.70;6.72;;;;;;;;;;5026516;27;88900;-75
2023/03/18 07:01:11;;;;;;;15.00;7.32;;;;;;;;;;5016086;28;90983;-75
2023/03/18 07:03:41;;;;;;;13.68;6.88;;;;;;;;;;5038480;28;89624;-74
2023/03/18 07:06:12;;;;;;;13.07;6.75;;;;;;;;;;5031305;28;87824;-74
2023/03/18 07:08:39;;;;;;;15.48;7.13;;;;;;;;;;5037670;27;90647;-73
2023/03/18 07:11:06;;;;;;;13.00;7.00;;;;;;;;;;5040625;28;89021;-74
2023/03/18 07:13:36;;;;;;;14.07;7.97;;;;;;;;;;5016533;28;88389;-74
2023/03/18 07:16:06;;;;;;;13.63;7.40;;;;;;;;;;5031716;28;90473;-75
2023/03/18 07:18:33;;;;;;;13.75;8.13;;;;;;;;;;5042568;27;87974;-74
2023/03/18 07:21:00;;;;;;;16.98;7.72;;;;;;;;;;5034678;28;95358;-74
2023/03/18 07:23:26;;;;;;;14.38;7.90;;;;;;;;;;5027560;28;88614;-75
2023/03/18 07:25:55;;;;;;;14.30;7.93;;;;;;;;;;5040552;28;90033;-73
2023/03/18 07:28:21;;;;;;;13.00;7.68;;;;;;;;;;5029371;28;87509;-74
2023/03/18 07:30:49;;;;;;;13.15;7.35;;;;;;;;;;5016186;28;88444;-75
2023/03/18 07:33:18;;;;;;;16.27;8.75;;;;;;;;;;5039464;28;87798;-74
2023/03/18 07:35:45;;;;;;;16.50;9.00;;;;;;;;;;5038237;28;89254;-75
2023/03/18 07:38:12;;;;;;;14.95;8.32;;;;;;;;;;5031851;27;87849;-74
2023/03/18 07:40:38;;;;;;;14.70;8.07;;;;;;;;;;5040480;27;87942;-75
2023/03/18 07:43:05;;;;;;;17.48;9.68;;;;;;;;;;5028377;27;88327;-75
2023/03/18 07:45:32;;;;;;;14.30;9.23;;;;;;;;;;5037603;27;88082;-75
2023/03/18 07:48:00;;;;;;;14.80;7.78;;;;;;;;;;5040378;27;88373;-75
2023/03/18 07:50:27;;;;;;;;;;;;;;;;;;5029646;27;88055;-74
2023/03/18 07:52:53;;;;;;;15.07;8.57;;;;;;;;;;5039887;27;105965;-75
2023/03/18 07:55:20;;;;;;;13.98;7.82;;;;;;;;;;5039005;27;88220;-75
2023/03/18 07:57:47;;;;;;;16.63;10.10;;;;;;;;;;5027893;28;88171;-75
2023/03/18 08:00:14;;;;;;;17.60;9.60;;;;;;;;;;5040910;27;88788;-76
2023/03/18 08:02:41;;;;;;;16.63;10.10;;;;;;;;;;5041492;27;88180;-75
2023/03/18 08:05:08;;;;;;;18.63;10.90;;;;;;;;;;5031900;27;88509;-74
2023/03/18 08:07:35;;;;;;;16.05;9.57;;;;;;;;;;5041553;27;89717;-74
2023/03/18 08:10:02;;;;;;;15.73;9.13;;;;;;;;;;5036891;27;88431;-74
2023/03/18 08:12:28;;;;;;;19.50;9.85;;;;;;;;;;5032836;28;87728;-75
2023/03/18 08:15:15;;;;;;;13.98;8.52;;;;;;;;;;5027027;28;92192;-75
2023/03/18 08:17:41;;;;;;;16.33;10.18;;;;;;;;;;5042320;27;87362;-74
2023/03/18 08:20:08;;;;;;;15.75;8.95;;;;;;;;;;5038661;27;88783;-75
2023/03/18 08:22:35;;;;;;;16.08;8.50;;;;;;;;;;5030554;27;89865;-76
2023/03/18 08:25:02;;;;;;;16.52;9.23;;;;;;;;;;5038146;28;88506;-75
2023/03/18 08:27:29;;;;;;;17.05;11.20;;;;;;;;;;5037842;27;89623;-75
2023/03/18 08:29:55;;;;;;;16.40;10.50;;;;;;;;;;5033833;28;89206;-75
2023/03/18 08:32:22;;;;;;;16.02;10.52;;;;;;;;;;5013777;28;90884;-74
2023/03/18 08:34:48;;;;;;;18.45;9.98;;;;;;;;;;5039734;27;95714;-75
2023/03/18 08:37:15;;;;;;;16.80;10.70;;;;;;;;;;5032073;28;88928;-75
2023/03/18 08:39:43;;;;;;;16.45;10.73;;;;;;;;;;5043388;27;90920;-75
2023/03/18 08:42:09;;;;;;;14.75;9.60;;;;;;;;;;5041302;27;88303;-74
2023/03/18 08:44:36;;;;;;;16.92;8.52;;;;;;;;;;5038709;27;89570;-75
2023/03/18 08:47:02;;;;;;;17.38;9.32;;;;;;;;;;5041328;27;88167;-75
2023/03/18 08:49:29;;;;;;;15.95;8.93;;;;;;;;;;5042790;27;90110;-76
2023/03/18 08:51:56;;;;;;;15.10;8.20;;;;;;;;;;5037573;27;88199;-75
2023/03/18 08:54:22;;;;;;;14.88;8.52;;;;;;;;;;5039055;28;88969;-74
2023/03/18 08:56:49;;;;;;;13.07;6.95;;;;;;;;;;5021966;28;90586;-75
2023/03/18 08:59:16;;;;;;;11.75;6.63;;;;;;;;;;5039064;27;87596;-75
2023/03/18 09:01:42;;;;;;;;;;;;;;;;;;5034100;28;89821;-76
2023/03/18 09:04:09;;;;;;;11.75;6.88;;;;;;;;;;5038266;28;116518;-75
2023/03/18 09:06:35;;;;;;;18.15;8.85;;;;;;;;;;5035187;27;87373;-75
2023/03/18 09:09:02;;;;;;;13.35;8.25;;;;;;;;;;5032322;28;88493;-74
2023/03/18 09:11:29;;;;;;;15.77;9.35;;;;;;;;;;5044565;27;90292;-76
2023/03/18 09:13:55;;;;;;;14.98;8.65;;;;;;;;;;5035108;27;88326;-74
2023/03/18 09:16:21;;;;;;;15.30;8.20;;;;;;;;;;5042526;28;88272;-76
2023/03/18 09:18:48;;;;;;;14.32;8.98;;;;;;;;;;5043559;27;87624;-74
2023/03/18 09:21:14;;;;;;;14.75;7.75;;;;;;;;;;5037657;27;87937;-75
2023/03/18 09:23:42;;;;;;;13.88;8.13;;;;;;;;;;5043006;28;88197;-74
2023/03/18 09:26:08;;;;;;;13.88;8.57;;;;;;;;;;5043588;27;87836;-74
2023/03/18 09:28:35;;;;;;;11.57;6.43;;;;;;;;;;5034464;27;91315;-75
2023/03/18 09:31:02;;;;;;;11.93;5.97;;;;;;;;;;5041544;27;87333;-74
2023/03/18 09:33:29;;;;;;;13.57;6.88;;;;;;;;;;5041427;28;87990;-74
2023/03/18 09:35:55;;;;;;;12.43;6.47;;;;;;;;;;5012197;28;88304;-73
2023/03/18 09:38:22;;;;;;;12.23;6.70;;;;;;;;;;5023525;28;88828;-74
2023/03/18 09:40:53;;;;;;;11.88;6.85;;;;;;;;;;5043117;27;89086;-74
2023/03/18 09:43:28;;;;;;;13.20;5.68;;;;;;;;;;5016973;28;88384;-74
2023/03/18 09:46:13;;;;;;;12.13;5.97;;;;;;;;;;5038643;28;89131;-74
2023/03/18 09:48:58;;;;;;;12.23;6.55;;;;;;;;;;5032042;27;89524;-74
2023/03/18 09:51:25;;;;;;;13.15;7.13;;;;;;;;;;5041295;27;87824;-74
2023/03/18 09:53:55;;;;;;;12.77;6.60;;;;;;;;;;5035915;27;88128;-75
2023/03/18 09:56:27;;;;;;;12.93;7.05;;;;;;;;;;5043676;27;87498;-75
2023/03/18 09:59:02;;;;;;;10.52;5.13;;;;;;;;;;5034601;27;87939;-75
2023/03/18 10:01:30;;;;;;;10.63;5.28;;;;;;;;;;5031300;27;88004;-75
2023/03/18 10:04:12;;;;;;;12.85;6.38;;;;;;;;;;5034855;27;88764;-75
2023/03/18 10:06:41;;;;;;;13.00;5.90;;;;;;;;;;5034579;27;88805;-76
2023/03/18 10:09:18;;;;;;;11.57;6.63;;;;;;;;;;5043034;27;88401;-74
2023/03/18 10:11:49;;;;;;;12.35;6.22;;;;;;;;;;5031398;28;87996;-74
2023/03/18 10:14:21;;;;;;;12.45;6.80;;;;;;;;;;5025246;28;90478;-75
2023/03/18 10:17:00;;;;;;;10.55;5.15;;;;;;;;;;5042660;27;89134;-76
2023/03/18 10:19:27;;;;;;;11.20;5.95;;;;;;;;;;5041375;27;88035;-75
2023/03/18 10:21:54;;;;;;;;;;;;;;;;;;5031602;28;90727;-74
2023/03/18 10:24:33;;;;;;;11.40;5.40;;;;;;;;;;5043426;28;95723;-74
2023/03/18 10:27:08;;;;;;;11.05;5.90;;;;;;;;;;5040216;27;87666;-75
2023/03/18 10:29:41;;;;;;;9.20;4.93;;;;;;;;;;5045669;27;88518;-74
2023/03/18 10:32:07;;;;;;;10.27;4.07;;;;;;;;;;5029062;28;87896;-74
2023/03/18 10:34:36;;;;;;;9.75;5.22;;;;;;;;;;5041531;27;88545;-76
2023/03/18 10:37:17;;;;;;;8.52;4.38;;;;;;;;;;5033880;28;90789;-74
2023/03/18 10:39:45;;;;;;;10.00;4.63;;;;;;;;;;5021592;28;87750;-76
2023/03/18 10:42:25;;;;;;;10.70;3.90;;;;;;;;;;5034289;27;88747;-74
2023/03/18 10:44:53;;;;;;;9.43;4.72;;;;;;;;;;5029652;28;88494;-73
2023/03/18 10:47:22;;;;;;;9.98;4.63;;;;;;;;;;5042007;27;86897;-75
2023/03/18 10:49:56;;;;;;;7.43;3.60;;;;;;;;;;5043328;27;88475;-76
2023/03/18 10:52:32;;;;;;;9.23;4.45;;;;;;;;;;5042658;27;88316;-75
2023/03/18 10:54:58;;;;;;;10.20;4.85;;;;;;;;;;5042052;27;93522;-74
2023/03/18 10:57:25;;;;;;;8.35;3.60;;;;;;;;;;5038440;28;88115;-75
2023/03/18 10:59:52;;;;;;;7.97;4.10;;;;;;;;;;5038463;27;88769;-75
2023/03/18 11:02:24;;;;;;;8.65;4.47;;;;;;;;;;5033486;28;91081;-75
2023/03/18 11:04:53;;;;;;;10.43;5.25;;;;;;;;;;5041244;27;88813;-74
2023/03/18 11:07:26;;;;;;;8.43;4.50;;;;;;;;;;5024157;28;88078;-74
2023/03/18 11:09:53;;;;;;;9.90;4.50;;;;;;;;;;5042470;27;87960;-74
2023/03/18 11:12:24;;;;;;;11.23;5.55;;;;;;;;;;5028618;28;88251;-75
2023/03/18 11:14:52;;;;;;;8.25;4.70;;;;;;;;;;5044992;27;88117;-74
2023/03/18 11:17:26;;;;;;;9.50;4.45;;;;;;;;;;5037570;27;89426;-75
2023/03/18 11:20:06;;;;;;;9.82;5.00;;;;;;;;;;5041047;28;88583;-74
2023/03/18 11:22:35;;;;;;;9.48;4.53;;;;;;;;;;5040646;28;90821;-75
2023/03/18 11:25:15;;;;;;;8.55;4.50;;;;;;;;;;5041118;27;93221;-75
2023/03/18 11:27:42;;;;;;;11.40;5.68;;;;;;;;;;5037854;27;88106;-75
2023/03/18 11:30:12;;;;;;;9.35;4.60;;;;;;;;;;5040066;27;89770;-74
2023/03/18 11:32:59;;;;;;;9.38;4.97;;;;;;;;;;5037355;27;88218;-75
2023/03/18 11:35:38;;;;;;;9.30;5.43;;;;;;;;;;5043914;28;89831;-75
2023/03/18 11:38:05;;;;;;;9.23;4.57;;;;;;;;;;5035041;27;87260;-75
2023/03/18 11:40:32;;;;;;;10.18;5.13;;;;;;;;;;5032775;27;88125;-75
2023/03/18 11:43:00;;;;;;;8.18;3.72;;;;;;;;;;5031685;28;92800;-75
2023/03/18 11:45:33;;;;;;;9.20;4.50;;;;;;;;;;5037716;28;89653;-76
2023/03/18 11:48:00;;;;;;;10.43;4.53;;;;;;;;;;5040513;27;87921;-75
2023/03/18 11:50:32;;;;;;;10.90;4.63;;;;;;;;;;5040394;27;88443;-75
2023/03/18 11:53:05;;;;;;;9.05;4.32;;;;;;;;;;5038055;28;92615;-74
2023/03/18 11:55:31;;;;;;;8.85;3.63;;;;;;;;;;5031578;28;87844;-76
2023/03/18 11:58:19;;;;;;;8.48;4.32;;;;;;;;;;5035548;28;89580;-75
2023/03/18 12:00:54;;;;;;;10.05;4.25;;;;;;;;;;5029057;28;87844;-75
2023/03/18 12:03:40;;;;;;;10.07;3.88;;;;;;;;;;5034349;28;90976;-74
2023/03/18 12:06:13;;;;;;;9.70;4.10;;;;;;;;;;5029003;27;88422;-75
2023/03/18 12:08:48;;;;;;;7.13;3.08;;;;;;;;;;5034026;27;88057;-77
2023/03/18 12:11:34;;;;;;;8.48;2.90;;;;;;;;;;5026818;28;89172;-76
2023/03/18 12:14:14;;;;;;;7.03;2.38;;;;;;;;;;5041291;27;88273;-76
2023/03/18 12:16:42;;;;;;;6.10;2.28;;;;;;;;;;5039278;27;87740;-76
2023/03/18 12:19:27;;;;;;;3.97;1.90;;;;;;;;;;5040378;28;87853;-76
2023/03/18 12:22:00;;;;;;;5.18;2.08;;;;;;;;;;5045629;27;88780;-77
2023/03/18 12:24:41;;;;;;;6.95;1.92;;;;;;;;;;5019434;28;90572;-76
2023/03/18 12:27:17;;;;;;;3.70;1.70;;;;;;;;;;5034532;27;92400;-76
2023/03/18 12:29:48;;;;;;;3.80;1.70;;;;;;;;;;5046100;27;86956;-77
2023/03/18 12:32:17;;;;;;;6.72;1.90;;;;;;;;;;5032771;28;88145;-76
2023/03/18 12:35:02;;;;;;;3.80;1.73;;;;;;;;;;5043343;27;88835;-76
2023/03/18 12:37:47;;;;;;;3.42;1.77;;;;;;;;;;5036186;28;88488;-77
2023/03/18 12:40:16;;;;;;;4.18;2.05;;;;;;;;;;5040262;27;90753;-76
2023/03/18 12:42:50;;;;;;;5.57;2.10;;;;;;;;;;5044254;27;88213;-76
2023/03/18 12:45:19;;;;;;;4.30;2.00;;;;;;;;;;5038995;27;88247;-76
2023/03/18 12:47:53;;;;;;;4.07;1.85;;;;;;;;;;5019606;28;88355;-75
2023/03/18 12:50:20;;;;;;;4.53;1.98;;;;;;;;;;5024061;28;88214;-75
2023/03/18 12:52:59;;;;;;;5.15;1.80;;;;;;;;;;5035125;27;88085;-76
2023/03/18 12:55:28;;;;;;;4.57;1.90;;;;;;;;;;5038361;27;87690;-76
2023/03/18 12:57:58;;;;;;;3.67;1.85;;;;;;;;;;5029035;28;87867;-77
2023/03/18 13:00:42;;;;;;;3.60;1.80;;;;;;;;;;5038516;28;88255;-76
2023/03/18 13:03:28;;;;;;;4.43;1.88;;;;;;;;;;5035024;28;94389;-76
2023/03/18 13:05:59;;;;;;;4.53;1.60;;;;;;;;;;5009504;28;89069;-76
2023/03/18 13:08:28;;;;;;;7.18;1.80;;;;;;;;;;5036213;28;88181;-76
2023/03/18 13:11:04;;;;;;;6.32;1.63;;;;;;;;;;5044421;27;87655;-79
2023/03/18 13:13:32;;;;;;;11.15;1.85;;;;;;;;;;5036600;27;87897;-77
2023/03/18 13:16:00;;;;;;;7.63;2.00;;;;;;;;;;5044680;27;88151;-75
2023/03/18 13:18:30;;;;;;;7.47;2.00;;;;;;;;;;5043546;27;87725;-76
2023/03/18 13:20:57;;;;;;;6.07;1.70;;;;;;;;;;5031047;27;89295;-76
2023/03/18 13:23:34;;;;;;;4.05;1.63;;;;;;;;;;5032025;27;89025;-76
2023/03/18 13:26:01;;;;;;;7.53;1.80;;;;;;;;;;5042202;27;87999;-75
2023/03/18 13:28:43;;;;;;;7.18;1.85;;;;;;;;;;5028184;27;89367;-75
2023/03/18 13:31:10;;;;;;;3.67;1.73;;;;;;;;;;5038955;28;92651;-75
2023/03/18 13:33:42;;;;;;;5.00;1.73;;;;;;;;;;5044037;27;87964;-76
2023/03/18 13:36:09;;;;;;;4.70;1.50;;;;;;;;;;5044158;27;88829;-75
2023/03/18 13:38:41;;;;;;;10.25;2.08;;;;;;;;;;5036205;27;87687;-76
2023/03/18 13:41:08;;;;;;;6.25;2.03;;;;;;;;;;5044772;27;88651;-75
2023/03/18 13:43:38;;;;;;;5.30;1.60;;;;;;;;;;5026368;28;88704;-78
2023/03/18 13:46:15;;;;;;;9.05;2.00;;;;;;;;;;5044411;27;86882;-76
2023/03/18 13:48:42;;;;;;;7.50;1.70;;;;;;;;;;5032963;27;87725;-76
2023/03/18 13:51:19;;;;;;;5.80;1.80;;;;;;;;;;5039972;27;88983;-75
2023/03/18 13:53:46;;;;;;;4.07;1.90;;;;;;;;;;5027396;28;88415;-76
2023/03/18 13:56:28;;;;;;;3.22;1.52;;;;;;;;;;5033745;28;88028;-74
2023/03/18 13:58:54;;;;;;;6.35;1.88;;;;;;;;;;5016322;28;88108;-76
2023/03/18 14:01:27;;;;;;;7.00;1.90;;;;;;;;;;5033408;28;88457;-76
2023/03/18 14:03:57;;;;;;;7.70;2.15;;;;;;;;;;5042942;28;89725;-76
2023/03/18 14:06:38;;;;;;;6.50;1.80;;;;;;;;;;5035917;27;92168;-78
2023/03/18 14:09:23;;;;;;;31.23;3.42;;;;;;;;;;5042761;28;92403;-77
2023/03/18 14:11:51;;;;;;;28.55;3.17;;;;;;;;;;5013536;28;90251;-76
2023/03/18 14:14:36;;;;;;;40.22;3.90;;;;;;;;;;5033302;28;87947;-77
2023/03/18 14:17:03;;;;;;;17.48;2.85;;;;;;;;;;5037891;28;94651;-78
2023/03/18 14:19:32;;;;;;;48.65;4.90;;;;;;;;;;5043568;27;88586;-78
2023/03/18 14:22:05;;;;;;;50.95;4.70;;;;;;;;;;5040315;28;89667;-77
2023/03/18 14:24:32;;;;;;;35.60;3.75;;;;;;;;;;5043250;27;88099;-78
2023/03/18 14:26:58;;;;;;;24.15;3.22;;;;;;;;;;5039468;27;88365;-79
2023/03/18 14:29:26;;;;;;;19.45;3.22;;;;;;;;;;5037789;27;88218;-79
2023/03/18 14:31:57;;;;;;;20.08;2.80;;;;;;;;;;5036479;28;90482;-78
2023/03/18 14:34:24;;;;;;;15.00;2.50;;;;;;;;;;5043214;27;87977;-76
2023/03/18 14:36:51;;;;;;;15.23;2.30;;;;;;;;;;5019949;28;89714;-77
2023/03/18 14:39:38;;;;;;;19.17;2.80;;;;;;;;;;5041795;27;87899;-78
2023/03/18 14:42:19;;;;;;;12.77;2.10;;;;;;;;;;5029049;28;89623;-78
2023/03/18 14:44:48;;;;;;;9.82;2.17;;;;;;;;;;5033322;27;91172;-77
2023/03/18 14:47:19;;;;;;;8.57;2.00;;;;;;;;;;5031371;28;88229;-78
2023/03/18 14:50:05;;;;;;;15.23;2.65;;;;;;;;;;5019423;28;87851;-76